sensor_id;sensor_type;location;lat;lon;timestamp;temperature;humidity
14031;DHT22;7090;49.436;8.490;2023-05-07T00:01:43;14.80;99.90
14031;DHT22;7090;49.436;8.490;2023-05-07T00:04:09;14.80;99.90
14031;DHT22;7090;49.436;8.490;2023-05-07T00:06:35;14.80;99.90
14031;DHT22;7090;49.436;8.490;2023-05-07T00:09:01;14.80;99.90
14031;DHT22;7090;49.436;8.490;2023-05-07T00:11:27;14.80;99.90
14031;DHT22;7090;49.436;8.490;2023-05-07T00:13:53;14.70;99.90
14031;DHT22;7090;49.436;8.490;2023-05-07T00:16:18;14.60;99.90
14031;DHT22;7090;49.436;8.490;2023-05-07T00:18:44;14.50;99.90
14031;DHT22;7090;49.436;8.490;2023-05-07T00:21:10;14.40;99.90
14031;DHT22;7090;49.436;8.490;2023-05-07T00:23:36;14.40;99.90
14031;DHT22;7090;49.436;8.490;2023-05-07T00:26:02;14.20;99.90
14031;DHT22;7090;49.436;8.490;2023-05-07T00:28:27;14.20;99.90
14031;DHT22;7090;49.436;8.490;2023-05-07T00:30:53;14.20;99.90
14031;DHT22;7090;49.436;8.490;2023-05-07T00:33:18;14.10;99.90
14031;DHT22;7090;49.436;8.490;2023-05-07T00:35:46;14.10;99.90
14031;DHT22;7090;49.436;8.490;2023-05-07T00:38:11;14.10;99.90
14031;DHT22;7090;49.436;8.490;2023-05-07T00:40:37;14.00;99.90
14031;DHT22;7090;49.436;8.490;2023-05-07T00:43:03;14.10;99.90
14031;DHT22;7090;49.436;8.490;2023-05-07T00:45:29;14.00;99.90
14031;DHT22;7090;49.436;8.490;2023-05-07T00:47:59;13.90;99.90
14031;DHT22;7090;49.436;8.490;2023-05-07T00:50:29;14.00;99.90
14031;DHT22;7090;49.436;8.490;2023-05-07T00:52:55;14.20;99.90
14031;DHT22;7090;49.436;8.490;2023-05-07T00:55:22;14.10;99.90
14031;DHT22;7090;49.436;8.490;2023-05-07T00:57:47;14.10;99.90
14031;DHT22;7090;49.436;8.490;2023-05-07T01:00:14;14.10;99.90
14031;DHT22;7090;49.436;8.490;2023-05-07T01:02:40;13.90;99.90
14031;DHT22;7090;49.436;8.490;2023-05-07T01:05:08;13.90;99.90
14031;DHT22;7090;49.436;8.490;2023-05-07T01:07:35;13.80;99.90
14031;DHT22;7090;49.436;8.490;2023-05-07T01:10:03;13.70;99.90
14031;DHT22;7090;49.436;8.490;2023-05-07T01:12:29;13.70;99.90
14031;DHT22;7090;49.436;8.490;2023-05-07T01:14:56;13.60;99.90
14031;DHT22;7090;49.436;8.490;2023-05-07T01:17:23;13.60;99.90
14031;DHT22;7090;49.436;8.490;2023-05-07T01:19:48;13.50;99.90
14031;DHT22;7090;49.436;8.490;2023-05-07T01:22:15;13.50;99.90
14031;DHT22;7090;49.436;8.490;2023-05-07T01:24:42;13.40;99.90
14031;DHT22;7090;49.436;8.490;2023-05-07T01:27:08;13.30;99.90
14031;DHT22;7090;49.436;8.490;2023-05-07T01:29:33;13.20;99.90
14031;DHT22;7090;49.436;8.490;2023-05-07T01:32:01;13.20;99.90
14031;DHT22;7090;49.436;8.490;2023-05-07T01:34:30;13.10;99.90
14031;DHT22;7090;49.436;8.490;2023-05-07T01:36:56;13.10;99.90
14031;DHT22;7090;49.436;8.490;2023-05-07T01:39:26;13.20;99.90
14031;DHT22;7090;49.436;8.490;2023-05-07T01:41:56;13.40;99.90
14031;DHT22;7090;49.436;8.490;2023-05-07T01:44:22;13.40;99.90
14031;DHT22;7090;49.436;8.490;2023-05-07T01:46:48;13.40;99.90
14031;DHT22;7090;49.436;8.490;2023-05-07T01:49:14;13.40;99.90
14031;DHT22;7090;49.436;8.490;2023-05-07T01:51:41;13.20;99.90
14031;DHT22;7090;49.436;8.490;2023-05-07T01:54:07;13.30;99.90
14031;DHT22;7090;49.436;8.490;2023-05-07T01:56:33;13.30;99.90
14031;DHT22;7090;49.436;8.490;2023-05-07T01:58:59;13.30;99.90
14031;DHT22;7090;49.436;8.490;2023-05-07T02:01:25;13.20;99.90
14031;DHT22;7090;49.436;8.490;2023-05-07T02:03:50;13.20;99.90
14031;DHT22;7090;49.436;8.490;2023-05-07T02:06:16;13.20;99.90
14031;DHT22;7090;49.436;8.490;2023-05-07T02:08:41;13.10;99.90
14031;DHT22;7090;49.436;8.490;2023-05-07T02:11:07;13.10;99.90
14031;DHT22;7090;49.436;8.490;2023-05-07T02:13:33;13.10;99.90
14031;DHT22;7090;49.436;8.490;2023-05-07T02:16:02;13.10;99.90
14031;DHT22;7090;49.436;8.490;2023-05-07T02:18:28;13.00;99.90
14031;DHT22;7090;49.436;8.490;2023-05-07T02:20:54;13.00;99.90
14031;DHT22;7090;49.436;8.490;2023-05-07T02:23:20;12.90;99.90
14031;DHT22;7090;49.436;8.490;2023-05-07T02:25:45;12.70;99.90
14031;DHT22;7090;49.436;8.490;2023-05-07T02:28:11;12.70;99.90
14031;DHT22;7090;49.436;8.490;2023-05-07T02:30:37;12.70;99.90
14031;DHT22;7090;49.436;8.490;2023-05-07T02:33:03;12.60;99.90
14031;DHT22;7090;49.436;8.490;2023-05-07T02:35:29;12.60;99.90
14031;DHT22;7090;49.436;8.490;2023-05-07T02:37:54;12.50;99.90
14031;DHT22;7090;49.436;8.490;2023-05-07T02:40:20;12.50;99.90
14031;DHT22;7090;49.436;8.490;2023-05-07T02:42:46;12.50;99.90
14031;DHT22;7090;49.436;8.490;2023-05-07T02:45:11;12.50;99.90
14031;DHT22;7090;49.436;8.490;2023-05-07T02:47:37;12.50;99.90
14031;DHT22;7090;49.436;8.490;2023-05-07T02:50:03;12.40;99.90
14031;DHT22;7090;49.436;8.490;2023-05-07T02:52:29;12.50;99.90
14031;DHT22;7090;49.436;8.490;2023-05-07T02:54:54;12.70;99.90
14031;DHT22;7090;49.436;8.490;2023-05-07T02:57:20;12.80;99.90
14031;DHT22;7090;49.436;8.490;2023-05-07T02:59:46;12.90;99.90
14031;DHT22;7090;49.436;8.490;2023-05-07T03:02:11;12.80;99.90
14031;DHT22;7090;49.436;8.490;2023-05-07T03:04:37;12.90;99.90
14031;DHT22;7090;49.436;8.490;2023-05-07T03:07:03;12.80;99.90
14031;DHT22;7090;49.436;8.490;2023-05-07T03:09:28;12.80;99.90
14031;DHT22;7090;49.436;8.490;2023-05-07T03:11:54;12.90;99.90
14031;DHT22;7090;49.436;8.490;2023-05-07T03:14:19;12.70;99.90
14031;DHT22;7090;49.436;8.490;2023-05-07T03:16:45;12.60;99.90
14031;DHT22;7090;49.436;8.490;2023-05-07T03:19:11;12.50;99.90
14031;DHT22;7090;49.436;8.490;2023-05-07T03:21:36;12.50;99.90
14031;DHT22;7090;49.436;8.490;2023-05-07T03:24:02;12.40;99.90
14031;DHT22;7090;49.436;8.490;2023-05-07T03:26:28;12.40;99.90
14031;DHT22;7090;49.436;8.490;2023-05-07T03:28:54;12.40;99.90
14031;DHT22;7090;49.436;8.490;2023-05-07T03:31:20;12.60;99.90
14031;DHT22;7090;49.436;8.490;2023-05-07T03:33:54;12.70;99.90
14031;DHT22;7090;49.436;8.490;2023-05-07T03:36:20;12.80;99.90
14031;DHT22;7090;49.436;8.490;2023-05-07T03:38:46;12.60;99.90
14031;DHT22;7090;49.436;8.490;2023-05-07T03:41:12;12.60;99.90
14031;DHT22;7090;49.436;8.490;2023-05-07T03:43:37;12.40;99.90
14031;DHT22;7090;49.436;8.490;2023-05-07T03:46:03;12.30;99.90
14031;DHT22;7090;49.436;8.490;2023-05-07T03:48:29;12.20;99.90
14031;DHT22;7090;49.436;8.490;2023-05-07T03:50:55;12.20;99.90
14031;DHT22;7090;49.436;8.490;2023-05-07T03:53:21;12.20;99.90
14031;DHT22;7090;49.436;8.490;2023-05-07T03:55:46;12.30;99.90
14031;DHT22;7090;49.436;8.490;2023-05-07T03:58:12;12.30;99.90
14031;DHT22;7090;49.436;8.490;2023-05-07T04:00:37;12.30;99.90
14031;DHT22;7090;49.436;8.490;2023-05-07T04:03:05;12.30;99.90
14031;DHT22;7090;49.436;8.490;2023-05-07T04:05:31;12.40;99.90
14031;DHT22;7090;49.436;8.490;2023-05-07T04:07:58;12.30;99.90
14031;DHT22;7090;49.436;8.490;2023-05-07T04:10:24;12.40;99.90
14031;DHT22;7090;49.436;8.490;2023-05-07T04:12:50;12.30;99.90
14031;DHT22;7090;49.436;8.490;2023-05-07T04:15:15;12.30;99.90
14031;DHT22;7090;49.436;8.490;2023-05-07T04:17:41;12.30;99.90
14031;DHT22;7090;49.436;8.490;2023-05-07T04:20:09;12.30;99.90
14031;DHT22;7090;49.436;8.490;2023-05-07T04:22:36;12.40;99.90
14031;DHT22;7090;49.436;8.490;2023-05-07T04:25:02;12.40;99.90
14031;DHT22;7090;49.436;8.490;2023-05-07T04:27:28;12.50;99.90
14031;DHT22;7090;49.436;8.490;2023-05-07T04:29:54;12.60;99.90
14031;DHT22;7090;49.436;8.490;2023-05-07T04:32:21;12.60;99.90
14031;DHT22;7090;49.436;8.490;2023-05-07T04:34:47;12.70;99.90
14031;DHT22;7090;49.436;8.490;2023-05-07T04:37:13;12.80;99.90
14031;DHT22;7090;49.436;8.490;2023-05-07T04:39:38;12.90;99.90
14031;DHT22;7090;49.436;8.490;2023-05-07T04:42:04;13.00;99.90
14031;DHT22;7090;49.436;8.490;2023-05-07T04:44:30;13.20;99.90
14031;DHT22;7090;49.436;8.490;2023-05-07T04:46:56;13.50;99.90
14031;DHT22;7090;49.436;8.490;2023-05-07T04:49:22;13.80;99.90
14031;DHT22;7090;49.436;8.490;2023-05-07T04:51:47;14.00;99.90
14031;DHT22;7090;49.436;8.490;2023-05-07T04:54:13;14.10;99.90
14031;DHT22;7090;49.436;8.490;2023-05-07T04:56:39;14.20;99.90
14031;DHT22;7090;49.436;8.490;2023-05-07T04:59:04;14.30;99.90
14031;DHT22;7090;49.436;8.490;2023-05-07T05:01:31;14.40;99.90
14031;DHT22;7090;49.436;8.490;2023-05-07T05:03:56;14.20;99.90
14031;DHT22;7090;49.436;8.490;2023-05-07T05:06:22;14.20;99.90
14031;DHT22;7090;49.436;8.490;2023-05-07T05:08:48;14.20;99.90
14031;DHT22;7090;49.436;8.490;2023-05-07T05:11:13;14.20;99.90
14031;DHT22;7090;49.436;8.490;2023-05-07T05:13:40;14.20;99.90
14031;DHT22;7090;49.436;8.490;2023-05-07T05:16:06;14.20;99.90
14031;DHT22;7090;49.436;8.490;2023-05-07T05:18:32;14.20;99.90
14031;DHT22;7090;49.436;8.490;2023-05-07T05:20:57;14.20;99.90
14031;DHT22;7090;49.436;8.490;2023-05-07T05:23:23;14.30;99.90
14031;DHT22;7090;49.436;8.490;2023-05-07T05:25:48;14.30;99.90
14031;DHT22;7090;49.436;8.490;2023-05-07T05:28:14;14.40;99.90
14031;DHT22;7090;49.436;8.490;2023-05-07T05:30:39;14.40;99.90
14031;DHT22;7090;49.436;8.490;2023-05-07T05:33:05;14.50;99.90
14031;DHT22;7090;49.436;8.490;2023-05-07T05:35:31;14.60;99.90
14031;DHT22;7090;49.436;8.490;2023-05-07T05:37:57;14.70;99.90
14031;DHT22;7090;49.436;8.490;2023-05-07T05:40:22;14.80;99.90
14031;DHT22;7090;49.436;8.490;2023-05-07T05:42:48;14.90;99.90
14031;DHT22;7090;49.436;8.490;2023-05-07T05:45:13;15.00;99.90
14031;DHT22;7090;49.436;8.490;2023-05-07T05:47:39;15.10;99.90
14031;DHT22;7090;49.436;8.490;2023-05-07T05:50:06;15.20;99.90
14031;DHT22;7090;49.436;8.490;2023-05-07T05:52:32;15.30;99.90
14031;DHT22;7090;49.436;8.490;2023-05-07T05:54:57;15.40;99.90
14031;DHT22;7090;49.436;8.490;2023-05-07T05:57:23;15.60;99.90
14031;DHT22;7090;49.436;8.490;2023-05-07T05:59:48;15.80;99.90
14031;DHT22;7090;49.436;8.490;2023-05-07T06:02:14;16.20;99.90
14031;DHT22;7090;49.436;8.490;2023-05-07T06:04:40;16.30;99.90
14031;DHT22;7090;49.436;8.490;2023-05-07T06:07:05;16.60;99.90
14031;DHT22;7090;49.436;8.490;2023-05-07T06:09:31;16.90;99.90
14031;DHT22;7090;49.436;8.490;2023-05-07T06:11:57;17.20;99.90
14031;DHT22;7090;49.436;8.490;2023-05-07T06:14:22;17.40;99.90
14031;DHT22;7090;49.436;8.490;2023-05-07T06:16:48;17.60;99.90
14031;DHT22;7090;49.436;8.490;2023-05-07T06:19:13;17.70;99.90
14031;DHT22;7090;49.436;8.490;2023-05-07T06:21:39;17.70;99.90
14031;DHT22;7090;49.436;8.490;2023-05-07T06:24:06;18.00;99.90
14031;DHT22;7090;49.436;8.490;2023-05-07T06:26:31;18.20;99.90
14031;DHT22;7090;49.436;8.490;2023-05-07T06:28:57;18.40;99.90
14031;DHT22;7090;49.436;8.490;2023-05-07T06:31:22;18.40;99.90
14031;DHT22;7090;49.436;8.490;2023-05-07T06:33:49;18.50;31.30
14031;DHT22;7090;49.436;8.490;2023-05-07T06:36:15;18.60;20.00
14031;DHT22;7090;49.436;8.490;2023-05-07T06:38:41;18.60;1.00
14031;DHT22;7090;49.436;8.490;2023-05-07T06:41:06;18.80;1.00
14031;DHT22;7090;49.436;8.490;2023-05-07T06:43:33;19.10;1.00
14031;DHT22;7090;49.436;8.490;2023-05-07T06:45:59;19.20;1.00
14031;DHT22;7090;49.436;8.490;2023-05-07T06:48:24;19.10;1.00
14031;DHT22;7090;49.436;8.490;2023-05-07T06:50:50;19.20;1.00
14031;DHT22;7090;49.436;8.490;2023-05-07T06:53:16;19.50;1.00
14031;DHT22;7090;49.436;8.490;2023-05-07T06:55:41;20.10;99.90
14031;DHT22;7090;49.436;8.490;2023-05-07T06:58:07;20.00;99.90
14031;DHT22;7090;49.436;8.490;2023-05-07T07:00:33;20.10;99.90
14031;DHT22;7090;49.436;8.490;2023-05-07T07:02:58;20.50;1.00
14031;DHT22;7090;49.436;8.490;2023-05-07T07:05:25;20.40;1.00
14031;DHT22;7090;49.436;8.490;2023-05-07T07:07:50;20.60;1.00
14031;DHT22;7090;49.436;8.490;2023-05-07T07:10:21;20.80;1.00
14031;DHT22;7090;49.436;8.490;2023-05-07T07:12:48;21.10;1.00
14031;DHT22;7090;49.436;8.490;2023-05-07T07:15:14;21.30;99.90
14031;DHT22;7090;49.436;8.490;2023-05-07T07:17:40;21.30;99.90
14031;DHT22;7090;49.436;8.490;2023-05-07T07:20:06;21.60;99.90
14031;DHT22;7090;49.436;8.490;2023-05-07T07:22:31;21.70;99.90
14031;DHT22;7090;49.436;8.490;2023-05-07T07:24:57;21.80;1.00
14031;DHT22;7090;49.436;8.490;2023-05-07T07:27:23;21.70;29.60
14031;DHT22;7090;49.436;8.490;2023-05-07T07:29:48;21.80;99.90
14031;DHT22;7090;49.436;8.490;2023-05-07T07:32:14;21.80;99.90
14031;DHT22;7090;49.436;8.490;2023-05-07T07:34:40;22.00;1.00
14031;DHT22;7090;49.436;8.490;2023-05-07T07:37:05;22.10;1.00
14031;DHT22;7090;49.436;8.490;2023-05-07T07:39:34;22.00;1.00
14031;DHT22;7090;49.436;8.490;2023-05-07T07:42:02;21.90;1.00
14031;DHT22;7090;49.436;8.490;2023-05-07T07:44:28;22.10;99.90
14031;DHT22;7090;49.436;8.490;2023-05-07T07:46:54;22.20;1.00
14031;DHT22;7090;49.436;8.490;2023-05-07T07:49:19;22.50;1.00
14031;DHT22;7090;49.436;8.490;2023-05-07T07:51:45;22.70;1.00
14031;DHT22;7090;49.436;8.490;2023-05-07T07:54:11;22.70;1.00
14031;DHT22;7090;49.436;8.490;2023-05-07T07:56:36;22.90;1.00
14031;DHT22;7090;49.436;8.490;2023-05-07T07:59:02;22.70;1.00
14031;DHT22;7090;49.436;8.490;2023-05-07T08:01:29;23.20;64.80
14031;DHT22;7090;49.436;8.490;2023-05-07T08:03:55;23.60;99.90
14031;DHT22;7090;49.436;8.490;2023-05-07T08:06:21;23.90;99.90
14031;DHT22;7090;49.436;8.490;2023-05-07T08:08:46;23.40;1.00
14031;DHT22;7090;49.436;8.490;2023-05-07T08:11:12;23.30;1.00
14031;DHT22;7090;49.436;8.490;2023-05-07T08:13:38;23.40;1.00
14031;DHT22;7090;49.436;8.490;2023-05-07T08:16:04;23.60;1.00
14031;DHT22;7090;49.436;8.490;2023-05-07T08:18:30;23.50;26.90
14031;DHT22;7090;49.436;8.490;2023-05-07T08:20:55;23.40;90.10
14031;DHT22;7090;49.436;8.490;2023-05-07T08:23:21;23.40;99.90
14031;DHT22;7090;49.436;8.490;2023-05-07T08:25:48;23.60;99.90
14031;DHT22;7090;49.436;8.490;2023-05-07T08:28:14;23.60;99.90
14031;DHT22;7090;49.436;8.490;2023-05-07T08:30:40;23.70;99.90
14031;DHT22;7090;49.436;8.490;2023-05-07T08:33:05;23.90;1.00
14031;DHT22;7090;49.436;8.490;2023-05-07T08:35:31;24.00;1.00
14031;DHT22;7090;49.436;8.490;2023-05-07T08:37:57;24.30;99.90
14031;DHT22;7090;49.436;8.490;2023-05-07T08:40:25;24.60;34.10
14031;DHT22;7090;49.436;8.490;2023-05-07T08:42:52;24.80;99.90
14031;DHT22;7090;49.436;8.490;2023-05-07T08:45:19;25.00;1.00
14031;DHT22;7090;49.436;8.490;2023-05-07T08:47:59;25.30;1.00
14031;DHT22;7090;49.436;8.490;2023-05-07T08:50:25;25.40;1.00
14031;DHT22;7090;49.436;8.490;2023-05-07T08:52:51;25.80;99.90
14031;DHT22;7090;49.436;8.490;2023-05-07T08:55:17;26.30;99.90
14031;DHT22;7090;49.436;8.490;2023-05-07T08:57:42;26.60;99.90
14031;DHT22;7090;49.436;8.490;2023-05-07T09:00:08;27.20;99.90
14031;DHT22;7090;49.436;8.490;2023-05-07T09:02:35;27.40;1.00
14031;DHT22;7090;49.436;8.490;2023-05-07T09:05:01;27.30;1.00
14031;DHT22;7090;49.436;8.490;2023-05-07T09:07:27;27.00;99.90
14031;DHT22;7090;49.436;8.490;2023-05-07T09:09:53;27.20;99.90
14031;DHT22;7090;49.436;8.490;2023-05-07T09:12:21;27.20;99.90
14031;DHT22;7090;49.436;8.490;2023-05-07T09:14:47;27.50;1.00
14031;DHT22;7090;49.436;8.490;2023-05-07T09:17:13;27.30;1.00
14031;DHT22;7090;49.436;8.490;2023-05-07T09:19:39;27.20;1.00
14031;DHT22;7090;49.436;8.490;2023-05-07T09:22:05;27.00;99.90
14031;DHT22;7090;49.436;8.490;2023-05-07T09:24:35;26.80;1.00
14031;DHT22;7090;49.436;8.490;2023-05-07T09:27:04;26.50;99.90
14031;DHT22;7090;49.436;8.490;2023-05-07T09:29:30;26.40;1.00
14031;DHT22;7090;49.436;8.490;2023-05-07T09:32:04;26.10;1.00
14031;DHT22;7090;49.436;8.490;2023-05-07T09:34:31;25.90;1.00
14031;DHT22;7090;49.436;8.490;2023-05-07T09:37:00;26.10;99.90
14031;DHT22;7090;49.436;8.490;2023-05-07T09:39:26;26.30;99.90
14031;DHT22;7090;49.436;8.490;2023-05-07T09:41:51;26.40;1.00
14031;DHT22;7090;49.436;8.490;2023-05-07T09:44:20;26.20;99.90
14031;DHT22;7090;49.436;8.490;2023-05-07T09:46:53;26.50;99.90
14031;DHT22;7090;49.436;8.490;2023-05-07T09:49:22;26.80;99.90
14031;DHT22;7090;49.436;8.490;2023-05-07T09:51:50;27.40;1.00
14031;DHT22;7090;49.436;8.490;2023-05-07T09:54:17;27.70;99.90
14031;DHT22;7090;49.436;8.490;2023-05-07T09:56:44;28.00;1.00
14031;DHT22;7090;49.436;8.490;2023-05-07T09:59:14;28.00;1.00
14031;DHT22;7090;49.436;8.490;2023-05-07T10:01:42;27.70;1.00
14031;DHT22;7090;49.436;8.490;2023-05-07T10:04:08;28.00;1.00
14031;DHT22;7090;49.436;8.490;2023-05-07T10:06:35;28.50;99.90
14031;DHT22;7090;49.436;8.490;2023-05-07T10:09:02;28.60;1.00
14031;DHT22;7090;49.436;8.490;2023-05-07T10:11:28;28.80;1.00
14031;DHT22;7090;49.436;8.490;2023-05-07T10:13:54;29.10;1.00
14031;DHT22;7090;49.436;8.490;2023-05-07T10:16:21;29.20;1.00
14031;DHT22;7090;49.436;8.490;2023-05-07T10:18:47;29.20;1.00
14031;DHT22;7090;49.436;8.490;2023-05-07T10:21:18;29.10;1.00
14031;DHT22;7090;49.436;8.490;2023-05-07T10:24:42;28.40;99.90
14031;DHT22;7090;49.436;8.490;2023-05-07T10:26:45;29.00;99.90
14031;DHT22;7090;49.436;8.490;2023-05-07T10:29:25;29.10;99.90
14031;DHT22;7090;49.436;8.490;2023-05-07T10:32:19;29.10;99.90
14031;DHT22;7090;49.436;8.490;2023-05-07T10:34:54;28.00;99.90
14031;DHT22;7090;49.436;8.490;2023-05-07T10:37:20;28.30;99.90
14031;DHT22;7090;49.436;8.490;2023-05-07T10:39:46;29.00;99.90
14031;DHT22;7090;49.436;8.490;2023-05-07T10:42:13;29.20;1.00
14031;DHT22;7090;49.436;8.490;2023-05-07T10:44:39;29.30;1.00
14031;DHT22;7090;49.436;8.490;2023-05-07T10:47:09;28.60;99.90
14031;DHT22;7090;49.436;8.490;2023-05-07T10:49:36;28.20;26.00
14031;DHT22;7090;49.436;8.490;2023-05-07T10:52:16;28.50;1.00
14031;DHT22;7090;49.436;8.490;2023-05-07T10:54:43;29.00;1.00
14031;DHT22;7090;49.436;8.490;2023-05-07T10:57:34;29.80;1.00
14031;DHT22;7090;49.436;8.490;2023-05-07T11:00:40;29.30;1.00
14031;DHT22;7090;49.436;8.490;2023-05-07T11:05:25;30.30;1.00
14031;DHT22;7090;49.436;8.490;2023-05-07T11:07:54;30.30;1.00
14031;DHT22;7090;49.436;8.490;2023-05-07T11:10:21;30.60;87.10
14031;DHT22;7090;49.436;8.490;2023-05-07T11:12:48;30.00;99.90
14031;DHT22;7090;49.436;8.490;2023-05-07T11:15:14;26.50;1.00
14031;DHT22;7090;49.436;8.490;2023-05-07T11:17:59;25.60;1.00
14031;DHT22;7090;49.436;8.490;2023-05-07T11:26:09;26.40;1.00
14031;DHT22;7090;49.436;8.490;2023-05-07T11:28:42;27.10;99.90
14031;DHT22;7090;49.436;8.490;2023-05-07T11:31:09;26.10;99.90
14031;DHT22;7090;49.436;8.490;2023-05-07T11:33:35;26.00;1.00
14031;DHT22;7090;49.436;8.490;2023-05-07T11:36:03;25.60;99.90
14031;DHT22;7090;49.436;8.490;2023-05-07T11:38:38;25.60;99.90
14031;DHT22;7090;49.436;8.490;2023-05-07T11:41:04;26.50;1.00
14031;DHT22;7090;49.436;8.490;2023-05-07T11:43:33;27.00;1.00
14031;DHT22;7090;49.436;8.490;2023-05-07T11:46:09;28.60;99.90
14031;DHT22;7090;49.436;8.490;2023-05-07T11:48:36;29.60;1.00
14031;DHT22;7090;49.436;8.490;2023-05-07T11:51:03;30.00;77.40
14031;DHT22;7090;49.436;8.490;2023-05-07T11:53:36;28.10;1.00
14031;DHT22;7090;49.436;8.490;2023-05-07T11:56:08;27.10;1.00
14031;DHT22;7090;49.436;8.490;2023-05-07T11:58:34;25.70;1.00
14031;DHT22;7090;49.436;8.490;2023-05-07T12:01:00;26.50;99.90
14031;DHT22;7090;49.436;8.490;2023-05-07T12:03:26;26.40;99.90
14031;DHT22;7090;49.436;8.490;2023-05-07T12:05:52;26.60;99.90
14031;DHT22;7090;49.436;8.490;2023-05-07T12:08:19;26.70;44.90
14031;DHT22;7090;49.436;8.490;2023-05-07T12:10:46;27.10;1.00
14031;DHT22;7090;49.436;8.490;2023-05-07T12:13:19;28.40;1.00
14031;DHT22;7090;49.436;8.490;2023-05-07T12:15:45;28.70;1.00
14031;DHT22;7090;49.436;8.490;2023-05-07T12:18:12;27.40;1.00
14031;DHT22;7090;49.436;8.490;2023-05-07T12:20:39;26.40;1.00
14031;DHT22;7090;49.436;8.490;2023-05-07T12:23:05;26.20;1.00
14031;DHT22;7090;49.436;8.490;2023-05-07T12:25:38;26.40;1.00
14031;DHT22;7090;49.436;8.490;2023-05-07T12:28:04;26.60;99.90
14031;DHT22;7090;49.436;8.490;2023-05-07T12:30:37;26.90;99.90
14031;DHT22;7090;49.436;8.490;2023-05-07T12:33:04;27.50;1.00
14031;DHT22;7090;49.436;8.490;2023-05-07T12:35:30;28.20;1.00
14031;DHT22;7090;49.436;8.490;2023-05-07T12:37:57;27.40;1.00
14031;DHT22;7090;49.436;8.490;2023-05-07T12:40:29;27.30;1.00
14031;DHT22;7090;49.436;8.490;2023-05-07T12:43:00;27.40;1.00
14031;DHT22;7090;49.436;8.490;2023-05-07T12:45:26;27.40;99.90
14031;DHT22;7090;49.436;8.490;2023-05-07T12:47:51;27.00;99.90
14031;DHT22;7090;49.436;8.490;2023-05-07T12:50:17;27.40;99.90
14031;DHT22;7090;49.436;8.490;2023-05-07T12:52:45;27.00;1.00
14031;DHT22;7090;49.436;8.490;2023-05-07T12:55:14;27.20;1.00
14031;DHT22;7090;49.436;8.490;2023-05-07T12:57:42;26.70;1.00
14031;DHT22;7090;49.436;8.490;2023-05-07T13:00:08;27.20;1.00
14031;DHT22;7090;49.436;8.490;2023-05-07T13:02:37;27.20;1.00
14031;DHT22;7090;49.436;8.490;2023-05-07T13:05:04;26.80;1.00
14031;DHT22;7090;49.436;8.490;2023-05-07T13:07:29;27.10;1.00
14031;DHT22;7090;49.436;8.490;2023-05-07T13:09:55;27.80;1.00
14031;DHT22;7090;49.436;8.490;2023-05-07T13:12:20;27.10;1.00
14031;DHT22;7090;49.436;8.490;2023-05-07T13:14:46;26.70;99.90
14031;DHT22;7090;49.436;8.490;2023-05-07T13:17:12;26.30;99.90
14031;DHT22;7090;49.436;8.490;2023-05-07T13:19:37;25.90;99.90
14031;DHT22;7090;49.436;8.490;2023-05-07T13:22:03;25.80;56.30
14031;DHT22;7090;49.436;8.490;2023-05-07T13:24:29;26.10;99.90
14031;DHT22;7090;49.436;8.490;2023-05-07T13:26:54;26.00;1.00
14031;DHT22;7090;49.436;8.490;2023-05-07T13:29:20;26.00;1.00
14031;DHT22;7090;49.436;8.490;2023-05-07T13:31:50;25.80;1.00
14031;DHT22;7090;49.436;8.490;2023-05-07T13:34:16;25.50;1.00
14031;DHT22;7090;49.436;8.490;2023-05-07T13:36:41;25.50;1.00
14031;DHT22;7090;49.436;8.490;2023-05-07T13:39:07;25.50;1.00
14031;DHT22;7090;49.436;8.490;2023-05-07T13:41:34;25.30;1.00
14031;DHT22;7090;49.436;8.490;2023-05-07T13:43:59;25.00;99.90
14031;DHT22;7090;49.436;8.490;2023-05-07T13:46:25;24.20;1.00
14031;DHT22;7090;49.436;8.490;2023-05-07T13:48:51;23.30;1.00
14031;DHT22;7090;49.436;8.490;2023-05-07T13:51:16;22.70;1.00
14031;DHT22;7090;49.436;8.490;2023-05-07T13:53:42;22.10;99.90
14031;DHT22;7090;49.436;8.490;2023-05-07T13:56:08;21.70;99.90
14031;DHT22;7090;49.436;8.490;2023-05-07T13:58:33;21.30;1.00
14031;DHT22;7090;49.436;8.490;2023-05-07T14:00:59;21.10;1.00
14031;DHT22;7090;49.436;8.490;2023-05-07T14:03:24;20.90;1.00
14031;DHT22;7090;49.436;8.490;2023-05-07T14:05:50;20.70;99.90
14031;DHT22;7090;49.436;8.490;2023-05-07T14:08:15;20.40;99.90
14031;DHT22;7090;49.436;8.490;2023-05-07T14:10:43;20.10;99.90
14031;DHT22;7090;49.436;8.490;2023-05-07T14:13:09;19.90;99.90
14031;DHT22;7090;49.436;8.490;2023-05-07T14:15:35;19.80;99.90
14031;DHT22;7090;49.436;8.490;2023-05-07T14:18:02;19.70;99.90
14031;DHT22;7090;49.436;8.490;2023-05-07T14:20:27;19.60;99.90
14031;DHT22;7090;49.436;8.490;2023-05-07T14:22:53;19.60;99.90
14031;DHT22;7090;49.436;8.490;2023-05-07T14:25:18;19.40;99.90
14031;DHT22;7090;49.436;8.490;2023-05-07T14:27:44;19.30;99.90
14031;DHT22;7090;49.436;8.490;2023-05-07T14:30:10;19.30;99.90
14031;DHT22;7090;49.436;8.490;2023-05-07T14:32:36;19.10;99.90
14031;DHT22;7090;49.436;8.490;2023-05-07T14:35:01;19.10;99.90
14031;DHT22;7090;49.436;8.490;2023-05-07T14:37:27;19.00;99.90
14031;DHT22;7090;49.436;8.490;2023-05-07T14:39:53;18.90;99.90
14031;DHT22;7090;49.436;8.490;2023-05-07T14:42:19;18.80;99.90
14031;DHT22;7090;49.436;8.490;2023-05-07T14:44:44;18.70;99.90
14031;DHT22;7090;49.436;8.490;2023-05-07T14:47:10;18.40;99.90
14031;DHT22;7090;49.436;8.490;2023-05-07T14:49:36;17.90;99.90
14031;DHT22;7090;49.436;8.490;2023-05-07T14:52:02;17.40;99.90
14031;DHT22;7090;49.436;8.490;2023-05-07T14:54:27;17.20;99.90
14031;DHT22;7090;49.436;8.490;2023-05-07T14:56:53;17.00;99.90
14031;DHT22;7090;49.436;8.490;2023-05-07T14:59:19;16.90;99.90
14031;DHT22;7090;49.436;8.490;2023-05-07T15:01:47;16.80;99.90
14031;DHT22;7090;49.436;8.490;2023-05-07T15:04:12;16.60;99.90
14031;DHT22;7090;49.436;8.490;2023-05-07T15:06:38;16.50;99.90
14031;DHT22;7090;49.436;8.490;2023-05-07T15:09:04;16.30;99.90
14031;DHT22;7090;49.436;8.490;2023-05-07T15:11:29;16.20;99.90
14031;DHT22;7090;49.436;8.490;2023-05-07T15:13:55;16.20;99.90
14031;DHT22;7090;49.436;8.490;2023-05-07T15:16:21;16.10;99.90
14031;DHT22;7090;49.436;8.490;2023-05-07T15:18:48;16.00;99.90
14031;DHT22;7090;49.436;8.490;2023-05-07T15:21:14;15.90;99.90
14031;DHT22;7090;49.436;8.490;2023-05-07T15:23:40;15.90;99.90
14031;DHT22;7090;49.436;8.490;2023-05-07T15:26:06;15.90;99.90
14031;DHT22;7090;49.436;8.490;2023-05-07T15:28:33;15.80;99.90
14031;DHT22;7090;49.436;8.490;2023-05-07T15:30:59;15.80;99.90
14031;DHT22;7090;49.436;8.490;2023-05-07T15:33:25;15.80;99.90
14031;DHT22;7090;49.436;8.490;2023-05-07T15:35:50;15.60;99.90
14031;DHT22;7090;49.436;8.490;2023-05-07T15:38:16;15.60;99.90
14031;DHT22;7090;49.436;8.490;2023-05-07T15:40:41;15.60;99.90
14031;DHT22;7090;49.436;8.490;2023-05-07T15:43:08;15.60;99.90
14031;DHT22;7090;49.436;8.490;2023-05-07T15:45:39;15.50;99.90
14031;DHT22;7090;49.436;8.490;2023-05-07T15:48:05;15.50;99.90
14031;DHT22;7090;49.436;8.490;2023-05-07T15:50:31;15.30;99.90
14031;DHT22;7090;49.436;8.490;2023-05-07T15:52:57;15.40;99.90
14031;DHT22;7090;49.436;8.490;2023-05-07T15:55:23;15.40;99.90